aviador You're here:

KGZH Decoded Metar

EVERGREEN in AL, USA
Report Time2017-09-25 22:53:00
UTC Time2017-09-26 00:00:12
Flight Rules Old
WindCalm
Visibility9999 m
Phenomena:N/A
Clouds:Few 110 Hf
Expected CloudBase > 2,000 ft AGL from Temp-Dew spread
CeilingNone
Temp27°C (ISA +13)
Dew Point22°C (74% RH)
Heat Index29.2°C
QNH1012 hPa
Density Alt2,080 ft
Elevation256 ft
Report Wrong Elevation
Raw Report
METAR KGZH 252253Z AUTO 00000KT 10SM FEW110 27/22 A2989 RMK AO2 SLP118
T02670217=

Extra information for KGZH:More info

Metar Taf Metar & Taf Last 4 Metars F.Rules Stats Wind Profile Meteogram Temp Stats Airport Information Weather charts Add Link Nearby VenuesMetar ALERT Operation Metar Decoded Social comments

AIRNAV info for KGZH